Flight Track Log - Related Links

Times and Time Zones

All times are in EDT time to prevent confusion due to time zone crossing. See the UAL582 flight status page for this flight to view local times or setup timezone preferences in your user account.

Time Position Orientation Groundspeed Altitude Reporting Facility
EDT Latitude Longitude Course Direction KTS MPH feet Rate Location/Type
Wed 08:35:34 PM 41.9500 -87.8333 162° South 210 242 2,400  Level Chicago TRACON
Wed 08:36:11 PM 41.9186 -87.8194 162° South 237 273 3,500 2,265 Climbing Chicago Center
Wed 08:37:12 PM 41.8417 -87.8175 179° South 272 313 6,100 2,732 Climbing Chicago Center
Wed 08:38:14 PM 41.7622 -87.8283 186° South 287 330 9,100 2,758 Climbing Chicago Center
Wed 08:39:16 PM 41.6592 -87.8436 186° South 311 358 11,800 1,984 Climbing Chicago Center
Wed 08:40:18 PM 41.5647 -87.8556 185° South 341 392 13,200 1,500 Climbing Chicago Center
Wed 08:41:20 PM 41.4553 -87.8703 186° South 385 443 14,900 1,887 Climbing Chicago Center
Wed 08:42:22 PM 41.3433 -87.8847 186° South 395 455 17,100 2,032 Climbing Chicago Center
Wed 08:43:24 PM 41.2286 -87.8925 183° South 406 467 19,100 1,854 Climbing Chicago Center
Wed 08:44:25 PM 41.1114 -87.8883 178° South 419 482 20,900 1,659 Climbing Chicago Center
Wed 08:45:27 PM 40.9922 -87.8850 179° South 429 494 22,500 1,597 Climbing Chicago Center
Wed 08:46:29 PM 40.8456 -87.8797 178° South 441 507 24,200 1,645 Climbing Chicago Center
Wed 08:47:31 PM 40.7228 -87.8753 178° South 442 509 25,900 1,500 Climbing Chicago Center
Wed 08:48:33 PM 40.5986 -87.8728 179° South 447 514 27,300 1,024 Climbing Chicago Center
Wed 08:49:34 PM 40.4769 -87.8683 178° South 443 510 28,000 341 Climbing Chicago Center
Wed 08:50:36 PM 40.3567 -87.8650 179° South 436 502 28,000  Level Chicago Center
Wed 08:51:38 PM 40.2347 -87.8611 179° South 439 505 28,000  Level Chicago Center
Wed 08:52:40 PM 40.0961 -87.8539 178° South 443 510 28,000  Level Chicago Center
Wed 08:53:24 PM 40.0183 -87.8508 178° South 444 511 28,000  Level Indianapolis Center
Wed 08:54:25 PM 39.8561 -87.8439 178° South 479 551 28,000  Level Indianapolis Center
Wed 08:55:26 PM 39.7167 -87.8381 178° South 497 572 28,000  Level Indianapolis Center
Wed 08:56:27 PM 39.5783 -87.8322 178° South 500 575 28,000  Level Indianapolis Center
Wed 08:57:28 PM 39.4417 -87.8264 178° South 497 572 28,000  Level Indianapolis Center
Wed 08:58:29 PM 39.2956 -87.8189 178° South 499 574 28,000  Level Indianapolis Center
Wed 08:59:31 PM 39.1581 -87.8153 179° South 495 570 28,000  Level Indianapolis Center
Wed 09:00:32 PM 39.0242 -87.8086 178° South 483 556 28,000 295 Level Indianapolis Center
Wed 09:01:33 PM 38.8900 -87.8039 178° South 482 555 28,600 1,574 Climbing Indianapolis Center
Wed 09:02:34 PM 38.7622 -87.7978 178° South 464 534 31,200 1,869 Climbing Indianapolis Center
Wed 09:03:35 PM 38.6403 -87.7922 178° South 443 510 32,400 1,073 Climbing Indianapolis Center
Wed 09:04:37 PM 38.5178 -87.7875 178° South 442 509 33,400 1,122 Climbing Indianapolis Center
Wed 09:05:38 PM 38.3708 -87.7819 178° South 442 509 34,700 787 Climbing Indianapolis Center
Wed 09:06:39 PM 38.2508 -87.7769 178° South 435 501 35,000 148 Climbing Indianapolis Center
Wed 09:07:40 PM 38.1303 -87.7722 178° South 434 499 35,000  Level Indianapolis Center
Wed 09:08:41 PM 38.0078 -87.7689 179° South 439 505 35,000  Level Indianapolis Center
Wed 09:09:42 PM 37.8869 -87.7653 179° South 436 502 35,000  Level Indianapolis Center
Wed 09:10:44 PM 37.7556 -87.7619 179° South 438 504 35,000  Level Indianapolis Center
Wed 09:11:45 PM 37.6336 -87.7586 179° South 435 501 35,000  Level Indianapolis Center
Wed 09:12:46 PM 37.5100 -87.7583 180° South 439 505 35,000  Level Indianapolis Center
Wed 09:13:47 PM 37.3867 -87.7575 180° South 440 506 35,000  Level Indianapolis Center
Wed 09:14:38 PM 37.2756 -87.7581 180° South 447 514 35,000  Level Memphis Center
Wed 09:15:38 PM 37.1547 -87.7569 180° South 442 509 35,000  Level Memphis Center
Wed 09:16:38 PM 37.0297 -87.7611 182° South 442 509 35,000  Level Memphis Center
Wed 09:17:38 PM 36.9069 -87.7650 181° South 442 509 35,000  Level Memphis Center
Wed 09:18:38 PM 36.7819 -87.7689 181° South 442 509 35,000  Level Memphis Center
Wed 09:19:38 PM 36.6589 -87.7731 182° South 442 509 35,000  Level Memphis Center
Wed 09:20:38 PM 36.5319 -87.7797 182° South 450 518 35,000  Level Memphis Center
Wed 09:21:38 PM 36.4069 -87.7861 182° South 455 524 35,000  Level Memphis Center
Wed 09:22:38 PM 36.2819 -87.7900 181° South 455 524 35,000  Level Memphis Center
Wed 09:23:38 PM 36.1569 -87.7942 182° South 455 524 35,000  Level Memphis Center
Wed 09:24:38 PM 36.0336 -87.7747 173° South 455 524 35,000  Level Memphis Center
Wed 09:25:38 PM 35.9197 -87.7092 155° Southeast 446 513 35,000  Level Memphis Center
Wed 09:26:38 PM 35.8056 -87.6361 153° Southeast 458 527 35,000  Level Memphis Center
Wed 09:27:38 PM 35.7039 -87.5731 153° Southeast 463 533 35,000  Level Memphis Center
Wed 09:28:38 PM 35.5919 -87.5028 153° Southeast 457 526 35,000  Level Memphis Center
Wed 09:29:38 PM 35.4797 -87.4378 155° Southeast 446 513 35,000  Level Memphis Center
Wed 09:30:38 PM 35.3631 -87.3578 151° Southeast 446 513 35,000  Level Memphis Center
Wed 09:31:38 PM 35.2550 -87.2881 152° Southeast 441 507 35,000  Level Memphis Center
Wed 09:33:36 PM 35.0489 -87.1467 151° Southeast 425 489 35,000  Level Atlanta Center
Wed 09:34:36 PM 34.9400 -87.0767 152° Southeast 431 496 35,000  Level Atlanta Center
Wed 09:35:36 PM 34.8292 -87.0019 151° Southeast 443 510 35,000  Level Atlanta Center
Wed 09:36:36 PM 34.7389 -86.9431 152° Southeast 448 516 35,000 150 Level Atlanta Center
Wed 09:37:36 PM 34.6175 -86.8656 152° Southeast 448 516 35,300 750 Climbing Atlanta Center
Wed 09:38:36 PM 34.5044 -86.7914 152° Southeast 448 516 36,500 850 Climbing Atlanta Center
Wed 09:39:36 PM 34.3975 -86.7225 152° Southeast 443 510 37,000 250 Climbing Atlanta Center
Wed 09:40:36 PM 34.2842 -86.6508 152° Southeast 448 516 37,000  Level Atlanta Center
Wed 09:41:36 PM 34.1731 -86.5797 152° Southeast 448 516 37,000 50 Level Atlanta Center
Wed 09:42:36 PM 34.0575 -86.5061 152° Southeast 453 521 37,100 50 Climbing Atlanta Center
Wed 09:43:36 PM 33.9461 -86.4378 153° Southeast 453 521 37,100 -50 Level Atlanta Center
Wed 09:44:36 PM 33.8350 -86.3644 151° Southeast 448 516 37,000 -50 Descending Atlanta Center
Wed 09:45:36 PM 33.7236 -86.2967 153° Southeast 448 516 37,000  Level Atlanta Center
Wed 09:46:36 PM 33.6119 -86.2264 152° Southeast 448 516 37,000  Level Atlanta Center
Wed 09:47:36 PM 33.4944 -86.1536 153° Southeast 443 510 37,000  Level Atlanta Center
Wed 09:48:36 PM 33.3850 -86.0764 149° Southeast 451 519 37,000  Level Atlanta Center
Wed 09:49:36 PM 33.2711 -86.0142 155° Southeast 451 519 37,000  Level Atlanta Center
Wed 09:50:36 PM 33.1597 -85.9419 152° Southeast 445 512 37,000  Level Atlanta Center
Wed 09:51:36 PM 33.0481 -85.8728 153° Southeast 445 512 37,000  Level Atlanta Center
Wed 09:52:36 PM 32.9364 -85.8036 153° Southeast 450 518 37,000  Level Atlanta Center
Wed 09:53:36 PM 32.8267 -85.7322 151° Southeast 445 512 37,000  Level Atlanta Center
Wed 09:54:36 PM 32.7128 -85.6633 153° Southeast 452 520 37,000  Level Atlanta Center
Wed 09:55:36 PM 32.5989 -85.5922 152° Southeast 452 520 37,000  Level Atlanta Center
Wed 09:56:36 PM 32.4994 -85.5339 154° Southeast 452 520 37,000  Level Atlanta Center
Wed 09:58:26 PM 32.2753 -85.3964 153° Southeast 471 542 37,000  Level Jacksonville Center
Wed 09:59:26 PM 32.1619 -85.3294 153° Southeast 471 542 37,000  Level Jacksonville Center
Wed 10:00:26 PM 32.0442 -85.2603 154° Southeast 463 533 37,000  Level Jacksonville Center
Wed 10:01:26 PM 31.9286 -85.1911 153° Southeast 463 533 37,000  Level Jacksonville Center
Wed 10:02:26 PM 31.8253 -85.1297 153° Southeast 463 533 37,000  Level Jacksonville Center
Wed 10:03:26 PM 31.7075 -85.0611 154° Southeast 463 533 37,000  Level Jacksonville Center
Wed 10:04:26 PM 31.5897 -84.9900 153° Southeast 468 539 37,000  Level Jacksonville Center
Wed 10:05:26 PM 31.4739 -84.9192 152° Southeast 468 539 37,000  Level Jacksonville Center
Wed 10:06:26 PM 31.3436 -84.8411 153° Southeast 462 532 37,000  Level Jacksonville Center
Wed 10:07:26 PM 31.2319 -84.7658 150° Southeast 462 532 37,000  Level Jacksonville Center
Wed 10:08:26 PM 31.1500 -84.6475 129° Southeast 457 526 37,000  Level Jacksonville Center
Wed 10:09:26 PM 31.0725 -84.5297 128° Southeast 452 520 37,000  Level Jacksonville Center
Wed 10:10:26 PM 30.9925 -84.4119 128° Southeast 459 528 37,000  Level Jacksonville Center
Wed 10:11:26 PM 30.9122 -84.2944 129° Southeast 459 528 37,000 -100 Level Jacksonville Center
Wed 10:12:26 PM 30.8322 -84.1725 127° Southeast 465 535 36,800 -550 Descending Jacksonville Center
Wed 10:13:26 PM 30.7539 -84.0578 128° Southeast 465 535 35,900 -950 Descending Jacksonville Center
Wed 10:14:26 PM 30.6736 -83.9383 128° Southeast 465 535 34,900 -1,000 Descending Jacksonville Center
Wed 10:15:26 PM 30.5950 -83.8217 128° Southeast 465 535 33,900 -1,000 Descending Jacksonville Center
Wed 10:16:26 PM 30.5186 -83.7028 127° Southeast 465 535 32,900 -950 Descending Jacksonville Center
Wed 10:17:26 PM 30.4358 -83.5864 130° Southeast 465 535 32,000 -950 Descending Jacksonville Center
Wed 10:18:26 PM 30.3572 -83.4656 127° Southeast 465 535 31,000 -950 Descending Jacksonville Center
Wed 10:19:26 PM 30.2783 -83.3519 129° Southeast 465 535 30,100 -950 Descending Jacksonville Center
Wed 10:20:26 PM 30.1972 -83.2361 129° Southeast 465 535 29,100 -600 Descending Jacksonville Center
Wed 10:21:26 PM 30.1161 -83.1158 128° Southeast 470 541 28,900 -350 Descending Jacksonville Center
Wed 10:22:26 PM 30.0325 -82.9958 129° Southeast 470 541 28,400 -700 Descending Jacksonville Center
Wed 10:23:26 PM 29.9575 -82.8878 129° Southeast 479 551 27,500 -750 Descending Jacksonville Center
Wed 10:24:26 PM 29.8719 -82.7681 129° Southeast 479 551 26,900 -400 Descending Jacksonville Center
Wed 10:25:26 PM 29.7797 -82.6606 135° Southeast 479 551 26,700 -500 Descending Jacksonville Center
Wed 10:26:26 PM 29.6689 -82.5650 143° Southeast 479 551 25,900 -350 Descending Jacksonville Center
Wed 10:27:26 PM 29.5622 -82.4722 143° Southeast 484 557 26,000  Climbing Jacksonville Center
Wed 10:28:26 PM 29.4556 -82.3822 144° Southeast 484 557 25,900 -450 Descending Jacksonville Center
Wed 10:29:26 PM 29.3444 -82.3136 152° Southeast 472 543 25,100 -800 Descending Jacksonville Center
Wed 10:30:26 PM 29.2189 -82.2597 159° South 466 536 24,300 -900 Descending Jacksonville Center
Wed 10:31:26 PM 29.0978 -82.2153 162° South 466 536 23,300 -1,500 Descending Jacksonville Center
Wed 10:32:26 PM 28.9744 -82.1853 168° South 461 531 21,300 -2,750 Descending Jacksonville Center
Wed 10:33:26 PM 28.8450 -82.1672 173° South 442 509 17,800 -2,816 Descending Jacksonville Center
Wed 10:35:25 PM 28.6500 -82.2167 193° South 318 366 12,900 -2,145 Descending Tampa TRACON
Wed 10:36:25 PM 28.5667 -82.2333 190° South 306 352 11,400 -950 Descending Tampa TRACON
Wed 10:37:25 PM 28.4833 -82.2667 199° South 307 353 11,000 -200 Descending Tampa TRACON
Wed 10:38:25 PM 28.4167 -82.3000 204° Southwest 302 348 11,000  Level Tampa TRACON
Wed 10:39:25 PM 28.3333 -82.3167 190° South 304 350 11,000 -694 Level Tampa TRACON
Wed 10:40:26 PM 28.2500 -82.3167 180° South 297 342 9,600 -992 Descending Tampa TRACON
Wed 10:41:26 PM 28.1667 -82.3167 180° South 296 341 9,000 -550 Descending Tampa TRACON
Wed 10:42:26 PM 28.0833 -82.3000 170° South 294 338 8,500 -1,050 Descending Tampa TRACON
Wed 10:43:26 PM 28.0000 -82.3000 180° South 287 330 6,900 -1,300 Descending Tampa TRACON
Wed 10:44:26 PM 27.9333 -82.3333 204° Southwest 279 321 5,900 -762 Descending Tampa TRACON
Wed 10:45:32 PM 27.8667 -82.3833 214° Southwest 235 270 5,300 -667 Descending Tampa TRACON
Wed 10:46:32 PM 27.8333 -82.4333 233° Southwest 206 237 4,500 -800 Descending Tampa TRACON

Login

Don't have an account? Register now (free) for customized features, flight alerts, and more!